Time;durP1;ratioP1;P1;durP2;ratioP2;P2;SDS_P1;SDS_P2;PMS_P1;PMS_P2;Temp;Humidity;BMP_temperature;BMP_pressure;BME280_temperature;BME280_humidity;BME280_pressure;Samples;Min_cycle;Max_cycle;Signal;HPM_P1;HPM_P2
2022/12/27 00:00:22;;;;;;;16.33;2.53;;;3.80;99.90;;;;;;5041009;28;20036;-72
2022/12/27 00:02:51;;;;;;;11.90;1.50;;;3.80;99.90;;;;;;5049869;28;20494;-72
2022/12/27 00:05:16;;;;;;;11.00;1.83;;;3.80;99.90;;;;;;5049004;28;20029;-73
2022/12/27 00:07:43;;;;;;;10.77;1.80;;;3.80;99.90;;;;;;5061697;28;20050;-71
2022/12/27 00:10:09;;;;;;;12.07;2.28;;;3.90;99.90;;;;;;5046223;28;20782;-71
2022/12/27 00:12:36;;;;;;;8.82;1.85;;;3.80;99.90;;;;;;5049700;28;20448;-72
2022/12/27 00:15:02;;;;;;;11.50;1.63;;;3.90;99.90;;;;;;5063969;28;20049;-72
2022/12/27 00:17:28;;;;;;;16.65;1.90;;;3.80;99.90;;;;;;5053938;28;20062;-73
2022/12/27 00:19:54;;;;;;;13.80;2.40;;;4.30;99.90;;;;;;5029360;28;20044;-72
2022/12/27 00:22:20;;;;;;;12.88;1.80;;;3.80;99.90;;;;;;5033764;28;20040;-72
2022/12/27 00:24:46;;;;;;;13.52;2.08;;;4.00;99.90;;;;;;5069503;28;20052;-70
2022/12/27 00:27:12;;;;;;;8.30;2.22;;;4.30;99.90;;;;;;5051339;28;20405;-73
2022/12/27 00:29:39;;;;;;;10.88;1.92;;;4.10;99.90;;;;;;5067525;28;20039;-72
2022/12/27 00:32:05;;;;;;;11.07;1.70;;;3.70;99.90;;;;;;5057936;28;20037;-72
2022/12/27 00:34:30;;;;;;;9.40;1.80;;;3.80;99.90;;;;;;5057396;28;20036;-72
2022/12/27 00:36:56;;;;;;;7.65;1.33;;;3.70;99.90;;;;;;5042853;28;20147;-72
2022/12/27 00:39:22;;;;;;;7.50;1.23;;;3.70;99.90;;;;;;5069885;28;20044;-72
2022/12/27 00:41:47;;;;;;;14.68;2.50;;;3.70;99.90;;;;;;5048240;28;20039;-72
2022/12/27 00:44:13;;;;;;;8.80;1.38;;;3.70;99.90;;;;;;5076232;28;20571;-73
2022/12/27 00:46:39;;;;;;;15.00;1.90;;;3.60;99.90;;;;;;5047019;28;20500;-72
2022/12/27 00:49:05;;;;;;;12.50;1.70;;;3.60;99.90;;;;;;5058471;28;20051;-72
2022/12/27 00:51:30;;;;;;;19.73;2.67;;;3.60;99.90;;;;;;5055188;28;20078;-72
2022/12/27 00:53:56;;;;;;;12.48;1.55;;;3.60;99.90;;;;;;5045870;28;20097;-73
2022/12/27 00:56:25;;;;;;;11.05;1.90;;;3.80;99.90;;;;;;5052572;28;20050;-73
2022/12/27 00:58:56;;;;;;;10.85;1.52;;;3.60;99.90;;;;;;5040357;28;20066;-72
2022/12/27 01:01:24;;;;;;;10.82;1.60;;;3.80;99.90;;;;;;5055259;28;20437;-71
2022/12/27 01:03:50;;;;;;;15.55;2.00;;;3.70;99.90;;;;;;5077289;28;20048;-71
2022/12/27 01:06:19;;;;;;;10.32;1.88;;;3.70;99.90;;;;;;5064765;28;20042;-71
2022/12/27 01:08:45;;;;;;;12.70;1.70;;;3.80;99.90;;;;;;5037152;28;20044;-71
2022/12/27 01:11:12;;;;;;;13.18;1.80;;;3.80;99.90;;;;;;5056717;28;20128;-70
2022/12/27 01:13:39;;;;;;;11.80;2.00;;;3.90;99.90;;;;;;5069291;28;20145;-72
2022/12/27 01:16:13;;;;;;;11.18;1.65;;;4.20;99.90;;;;;;5053471;28;20037;-72
2022/12/27 01:18:39;;;;;;;12.50;2.00;;;4.00;99.90;;;;;;5047317;28;20073;-72
2022/12/27 01:21:07;;;;;;;13.32;1.77;;;4.10;99.90;;;;;;5064069;28;20032;-72
2022/12/27 01:23:33;;;;;;;10.88;2.35;;;4.10;99.90;;;;;;5052086;28;20046;-73
2022/12/27 01:26:04;;;;;;;14.05;1.90;;;4.10;99.90;;;;;;5071761;28;20031;-73
2022/12/27 01:28:30;;;;;;;10.82;2.08;;;4.10;99.90;;;;;;5056594;28;20036;-73
2022/12/27 01:30:56;;;;;;;12.88;1.90;;;4.20;99.90;;;;;;5050681;28;20178;-72
2022/12/27 01:33:22;;;;;;;9.70;1.80;;;4.20;99.90;;;;;;5072982;28;20100;-73
2022/12/27 01:35:51;;;;;;;16.00;3.58;;;4.50;99.90;;;;;;5047990;28;20064;-72
2022/12/27 01:38:16;;;;;;;11.52;1.90;;;4.30;99.90;;;;;;5055167;28;20443;-74
2022/12/27 01:40:42;;;;;;;14.07;1.60;;;4.30;99.90;;;;;;5059962;28;20048;-73
2022/12/27 01:43:21;;;;;;;12.18;1.58;;;4.50;99.90;;;;;;5068029;28;20041;-73
2022/12/27 01:45:47;;;;;;;11.50;1.75;;;4.40;99.90;;;;;;5045960;28;20088;-72
2022/12/27 01:48:22;;;;;;;13.10;1.67;;;4.40;99.90;;;;;;5076035;28;20098;-73
2022/12/27 01:51:08;;;;;;;10.57;1.98;;;4.50;99.90;;;;;;5058415;28;20082;-70
2022/12/27 01:53:43;;;;;;;9.02;1.13;;;4.50;99.90;;;;;;5036895;28;20124;-72
2022/12/27 01:56:21;;;;;;;13.88;1.40;;;4.50;99.90;;;;;;5067392;28;20050;-73
2022/12/27 01:59:01;;;;;;;9.60;1.58;;;4.60;99.90;;;;;;5061003;28;20094;-73
2022/12/27 02:01:34;;;;;;;11.23;1.40;;;4.50;99.90;;;;;;5056364;28;20048;-72
2022/12/27 02:04:04;;;;;;;7.68;1.30;;;4.60;99.90;;;;;;5045175;28;20467;-72
2022/12/27 02:06:33;;;;;;;11.40;2.05;;;4.60;99.90;;;;;;5073478;28;20040;-72
2022/12/27 02:09:23;;;;;;;11.70;1.65;;;4.60;99.90;;;;;;5050058;28;20071;-72
2022/12/27 02:11:55;;;;;;;9.40;1.90;;;4.60;99.90;;;;;;5071416;28;20048;-71
2022/12/27 02:14:29;;;;;;;8.50;1.30;;;4.60;99.90;;;;;;5075302;28;20056;-72
2022/12/27 02:16:57;;;;;;;11.50;1.67;;;4.50;99.90;;;;;;5060606;28;20056;-72
2022/12/27 02:20:08;;;;;;;15.35;2.03;;;4.50;99.90;;;;;;5051302;28;20505;-72
2022/12/27 02:26:01;;;;;;;13.48;1.73;;;4.50;99.90;;;;;;5053805;28;20048;-73
2022/12/27 02:28:55;;;;;;;11.30;2.20;;;4.50;99.90;;;;;;5043085;28;20051;-72
2022/12/27 02:31:35;;;;;;;11.57;1.80;;;4.50;99.90;;;;;;5038775;28;20094;-73
2022/12/27 02:34:06;;;;;;;13.10;2.58;;;4.40;99.90;;;;;;5062805;28;20051;-71
2022/12/27 02:36:34;;;;;;;11.32;1.60;;;4.40;99.90;;;;;;5072023;28;20062;-73
2022/12/27 02:39:02;;;;;;;19.85;1.50;;;4.50;99.90;;;;;;5049882;28;20496;-73
2022/12/27 02:53:07;;;;;;;15.27;1.95;;;4.90;99.90;;;;;;5050979;28;20055;-73
2022/12/27 02:59:00;;;;;;;16.30;2.30;;;4.40;99.90;;;;;;5068337;28;20056;-73
2022/12/27 03:04:54;;;;;;;18.08;1.90;;;4.40;99.90;;;;;;5072940;28;20075;-74
2022/12/27 03:07:48;;;;;;;8.85;1.38;;;4.40;99.90;;;;;;5070680;28;20063;-76
2022/12/27 03:16:22;;;;;;;11.25;2.45;;;4.30;99.90;;;;;;5061485;28;20497;-75
2022/12/27 03:19:10;;;;;;;19.30;2.00;;;4.30;99.90;;;;;;5057093;28;20055;-74
2022/12/27 03:27:31;;;;;;;17.83;1.55;;;4.40;99.90;;;;;;5060594;28;20079;-74
2022/12/27 03:35:42;;;;;;;11.70;1.88;;;4.40;99.90;;;;;;5057161;28;20041;-74
2022/12/27 03:38:11;;;;;;;9.02;1.67;;;4.20;99.90;;;;;;5047179;28;20089;-74
2022/12/27 03:43:09;;;;;;;11.93;2.05;;;4.40;99.90;;;;;;5035699;28;20063;-74
2022/12/27 03:43:32;;;;;;;11.80;1.98;;;4.40;99.90;;;;;;5049174;28;20056;-75
2022/12/27 03:46:32;;;;;;;13.63;1.80;;;4.40;99.90;;;;;;5051748;28;20111;-74
2022/12/27 03:49:22;;;;;;;17.73;2.20;;;4.40;99.90;;;;;;5067729;28;20605;-74
2022/12/27 03:52:09;;;;;;;10.50;2.00;;;4.40;99.90;;;;;;5069632;28;20540;-74
2022/12/27 03:54:38;;;;;;;20.70;2.63;;;4.40;99.90;;;;;;5052932;28;20052;-74
2022/12/27 03:57:17;;;;;;;12.98;1.52;;;4.90;99.90;;;;;;5034884;28;20044;-74
2022/12/27 03:59:43;;;;;;;13.38;2.05;;;4.40;99.90;;;;;;5050338;28;20058;-73
2022/12/27 04:02:09;;;;;;;12.63;1.80;;;4.40;99.90;;;;;;5065281;28;20124;-74
2022/12/27 04:04:35;;;;;;;15.15;1.60;;;4.40;99.90;;;;;;5072422;28;20041;-75
2022/12/27 04:07:02;;;;;;;13.20;2.05;;;4.40;99.90;;;;;;5072306;28;20052;-74
2022/12/27 04:36:51;;;;;;;11.35;2.13;;;4.20;99.90;;;;;;5051710;28;20052;-73
2022/12/27 04:39:17;;;;;;;21.10;1.92;;;4.10;99.90;;;;;;5055360;28;20040;-74
2022/12/27 04:55:28;;;;;;;11.93;2.47;;;4.20;99.90;;;;;;5053324;28;20056;-72
2022/12/27 04:57:55;;;;;;;13.52;1.80;;;4.20;99.90;;;;;;5048393;28;20455;-73
2022/12/27 05:03:15;;;;;;;11.88;1.92;;;4.20;99.90;;;;;;5055085;28;20052;-72
2022/12/27 05:05:42;;;;;;;16.38;2.50;;;4.20;99.90;;;;;;5077116;28;20076;-73
2022/12/27 05:16:22;;;;;;;13.82;2.22;;;4.20;99.90;;;;;;5078494;28;20044;-73
2022/12/27 05:18:47;;;;;;;10.75;1.73;;;4.20;99.90;;;;;;5036256;28;20516;-72
2022/12/27 05:21:13;;;;;;;14.95;2.10;;;4.20;99.90;;;;;;5041160;28;20050;-72
2022/12/27 05:26:25;;;;;;;11.90;2.25;;;4.10;99.90;;;;;;5052490;28;20541;-72
2022/12/27 05:28:54;;;;;;;14.07;2.60;;;4.10;99.90;;;;;;5048535;28;20055;-73
2022/12/27 05:31:21;;;;;;;16.60;1.85;;;4.70;99.90;;;;;;5040605;28;20151;-73
2022/12/27 05:33:48;;;;;;;13.00;2.00;;;4.10;99.90;;;;;;5057879;28;20048;-73
2022/12/27 05:36:14;;;;;;;12.52;1.98;;;4.00;99.90;;;;;;5068856;28;20041;-73
2022/12/27 05:38:39;;;;;;;9.38;2.10;;;4.00;99.90;;;;;;5057398;28;20250;-73
2022/12/27 05:41:06;;;;;;;9.82;2.03;;;4.00;99.90;;;;;;5058074;28;20071;-73
2022/12/27 05:43:32;;;;;;;9.77;2.03;;;4.30;99.90;;;;;;5069510;28;20119;-73
2022/12/27 05:46:16;;;;;;;16.67;3.50;;;4.50;99.90;;;;;;5073353;28;20143;-73
2022/12/27 05:48:42;;;;;;;13.00;2.10;;;4.00;99.90;;;;;;5066647;28;20186;-73
2022/12/27 05:51:11;;;;;;;12.48;2.22;;;3.90;99.90;;;;;;5054567;28;20047;-73
2022/12/27 05:53:37;;;;;;;13.38;2.47;;;3.90;99.90;;;;;;5041312;28;20442;-72
2022/12/27 05:56:03;;;;;;;13.57;2.05;;;3.90;99.90;;;;;;5063489;28;20142;-73
2022/12/27 05:58:29;;;;;;;16.67;2.33;;;3.90;99.90;;;;;;5052015;28;20040;-73
2022/12/27 06:00:55;;;;;;;12.75;1.83;;;3.90;99.90;;;;;;5056272;28;20443;-73
2022/12/27 06:03:21;;;;;;;11.98;1.83;;;4.40;99.90;;;;;;5046017;28;20185;-73
2022/12/27 06:05:47;;;;;;;13.25;2.22;;;3.80;99.90;;;;;;5061916;28;20582;-72
2022/12/27 06:08:13;;;;;;;11.40;1.60;;;4.10;99.90;;;;;;5037927;28;20080;-72
2022/12/27 06:10:39;;;;;;;11.38;1.45;;;3.80;99.90;;;;;;5033732;28;20801;-72
2022/12/27 06:13:05;;;;;;;17.63;2.47;;;3.80;99.90;;;;;;5055245;28;20052;-72
2022/12/27 06:15:31;;;;;;;10.88;2.20;;;3.90;99.90;;;;;;5043814;28;20110;-72
2022/12/27 06:17:58;;;;;;;16.38;3.25;;;4.20;99.90;;;;;;5051681;28;20059;-74
2022/12/27 06:20:24;;;;;;;11.90;1.90;;;3.80;99.90;;;;;;5078062;28;20041;-74
2022/12/27 06:22:49;;;;;;;20.83;2.38;;;3.80;99.90;;;;;;5072625;28;20121;-73
2022/12/27 06:25:15;;;;;;;11.70;2.20;;;3.80;99.90;;;;;;5056572;28;20059;-72
2022/12/27 06:27:41;;;;;;;15.70;2.58;;;3.70;99.90;;;;;;5039902;28;20060;-72
2022/12/27 06:30:09;;;;;;;22.27;2.13;;;3.80;99.90;;;;;;5055329;28;20052;-73
2022/12/27 06:32:35;;;;;;;14.38;2.05;;;3.80;99.90;;;;;;5057290;28;20512;-73
2022/12/27 06:35:01;;;;;;;13.73;2.15;;;3.80;99.90;;;;;;5055333;28;20098;-72
2022/12/27 06:37:28;;;;;;;19.58;2.95;;;3.80;99.90;;;;;;5052500;28;20074;-73
2022/12/27 06:39:54;;;;;;;11.63;2.03;;;3.70;99.90;;;;;;5053608;28;20579;-73
2022/12/27 06:42:20;;;;;;;10.07;1.67;;;3.70;99.90;;;;;;5064503;28;20044;-73
2022/12/27 06:44:45;;;;;;;11.20;1.65;;;3.70;99.90;;;;;;5056775;28;20396;-72
2022/12/27 06:47:11;;;;;;;15.27;1.80;;;3.70;99.90;;;;;;5067625;28;20041;-73
2022/12/27 06:49:37;;;;;;;15.38;2.83;;;3.60;99.90;;;;;;5052425;28;20036;-73
2022/12/27 06:52:03;;;;;;;13.70;1.98;;;3.70;99.90;;;;;;5038306;28;20037;-73
2022/12/27 06:54:28;;;;;;;13.48;1.98;;;3.60;99.90;;;;;;5051895;28;20032;-73
2022/12/27 06:56:55;;;;;;;11.38;1.98;;;3.60;99.90;;;;;;5058147;28;20101;-74
2022/12/27 06:59:22;;;;;;;15.05;2.08;;;3.60;99.90;;;;;;5072142;28;20094;-74
2022/12/27 07:01:47;;;;;;;20.77;2.13;;;3.60;99.90;;;;;;5035624;28;20043;-74
2022/12/27 07:04:13;;;;;;;13.43;1.83;;;3.60;99.90;;;;;;5049618;28;20044;-74
2022/12/27 07:06:39;;;;;;;14.40;2.47;;;3.60;99.90;;;;;;5070824;28;20040;-75
2022/12/27 07:09:05;;;;;;;16.35;2.10;;;3.70;99.90;;;;;;5055121;28;20043;-74
2022/12/27 07:11:35;;;;;;;15.02;2.38;;;3.90;99.90;;;;;;5048731;28;20055;-75
2022/12/27 07:14:01;;;;;;;13.18;1.80;;;3.60;99.90;;;;;;5073843;28;20156;-75
2022/12/27 07:16:28;;;;;;;12.50;1.63;;;3.10;99.90;;;;;;5033719;28;20041;-75
2022/12/27 07:18:56;;;;;;;10.82;1.60;;;3.70;99.90;;;;;;5056012;28;21057;-74
2022/12/27 07:21:23;;;;;;;9.63;2.17;;;3.50;99.90;;;;;;5040436;28;20032;-74
2022/12/27 07:23:50;;;;;;;12.38;1.90;;;3.50;99.90;;;;;;5046169;28;20044;-74
2022/12/27 07:26:30;;;;;;;12.38;1.98;;;3.50;99.90;;;;;;5056483;28;20090;-74
2022/12/27 07:28:58;;;;;;;12.55;1.60;;;3.50;99.90;;;;;;5056810;28;20044;-74
2022/12/27 07:31:28;;;;;;;19.35;3.13;;;3.50;99.90;;;;;;5054818;28;20567;-75
2022/12/27 07:33:55;;;;;;;15.20;2.08;;;3.50;99.90;;;;;;5052838;28;20036;-74
2022/12/27 07:36:25;;;;;;;13.75;1.60;;;3.50;99.90;;;;;;5050132;28;20178;-73
2022/12/27 07:38:50;;;;;;;12.30;1.70;;;3.60;99.90;;;;;;5055489;28;20043;-74
2022/12/27 07:41:17;;;;;;;8.63;1.70;;;3.50;99.90;;;;;;5052624;28;20417;-74
2022/12/27 07:43:43;;;;;;;13.20;1.63;;;3.50;99.90;;;;;;5057046;28;20044;-75
2022/12/27 07:46:13;;;;;;;13.60;1.58;;;3.80;99.90;;;;;;5038137;28;20086;-75
2022/12/27 07:48:39;;;;;;;16.65;2.45;;;3.70;99.90;;;;;;5034146;28;20608;-75
2022/12/27 07:51:06;;;;;;;16.95;2.13;;;3.50;99.90;;;;;;5071924;28;20043;-74
2022/12/27 07:53:32;;;;;;;17.52;1.73;;;3.50;99.90;;;;;;5048488;28;20048;-75
2022/12/27 07:55:58;;;;;;;11.23;2.13;;;3.80;99.90;;;;;;5072054;28;20150;-74
2022/12/27 07:58:24;;;;;;;18.95;2.00;;;3.60;99.90;;;;;;5065560;28;20036;-74
2022/12/27 08:00:51;;;;;;;15.50;1.98;;;3.50;99.90;;;;;;5053835;28;20047;-74
2022/12/27 08:03:17;;;;;;;9.82;1.77;;;3.50;99.90;;;;;;5053935;28;20102;-74
2022/12/27 08:05:48;;;;;;;12.13;1.85;;;3.90;99.90;;;;;;5058459;28;20040;-74
2022/12/27 08:08:16;;;;;;;12.07;1.73;;;3.50;99.90;;;;;;5051816;28;20781;-74
2022/12/27 08:10:43;;;;;;;14.00;1.83;;;3.50;99.90;;;;;;5067663;28;20129;-74
2022/12/27 08:13:09;;;;;;;8.57;1.90;;;3.50;99.90;;;;;;5035757;28;20082;-74
2022/12/27 08:15:36;;;;;;;14.27;1.90;;;3.40;99.90;;;;;;5073099;28;20767;-74
2022/12/27 08:18:02;;;;;;;12.60;2.00;;;3.50;99.90;;;;;;5055358;28;20503;-75
2022/12/27 08:20:28;;;;;;;14.45;2.33;;;3.40;99.90;;;;;;5035660;28;20053;-74
2022/12/27 08:22:54;;;;;;;14.55;2.67;;;3.40;99.90;;;;;;5032678;28;20080;-74
2022/12/27 08:25:23;;;;;;;14.75;1.90;;;3.40;99.90;;;;;;5070288;28;20852;-74
2022/12/27 08:27:49;;;;;;;11.73;1.98;;;3.50;99.90;;;;;;5057633;28;20967;-74
2022/12/27 08:30:15;;;;;;;16.67;2.85;;;3.40;99.90;;;;;;5038689;28;20083;-74
2022/12/27 08:32:40;;;;;;;15.13;2.65;;;3.40;99.90;;;;;;5070914;28;20167;-74
2022/12/27 08:35:06;;;;;;;12.82;2.20;;;3.40;99.90;;;;;;5052801;28;20052;-74
2022/12/27 08:37:32;;;;;;;16.05;2.92;;;3.40;99.90;;;;;;5068097;28;20086;-75
2022/12/27 08:39:58;;;;;;;11.13;2.05;;;3.40;99.90;;;;;;5053274;28;20449;-74
2022/12/27 08:42:24;;;;;;;13.85;2.08;;;4.00;99.90;;;;;;5072019;28;20040;-74
2022/12/27 08:44:50;;;;;;;10.75;2.58;;;3.40;99.90;;;;;;5072117;28;20764;-74
2022/12/27 08:47:18;;;;;;;16.83;2.20;;;3.40;99.90;;;;;;5054619;28;20089;-73
2022/12/27 08:49:44;;;;;;;15.68;1.92;;;3.40;99.90;;;;;;5053318;28;20390;-73
2022/12/27 08:52:10;;;;;;;12.60;2.42;;;3.40;99.90;;;;;;5052687;28;20051;-73
2022/12/27 08:54:36;;;;;;;13.13;2.08;;;3.40;99.90;;;;;;5071073;28;20044;-74
2022/12/27 08:57:01;;;;;;;12.40;2.13;;;3.40;99.90;;;;;;5047461;28;20052;-72
2022/12/27 08:59:27;;;;;;;11.05;2.00;;;3.40;99.90;;;;;;5035515;28;20481;-72
2022/12/27 09:01:53;;;;;;;17.15;2.40;;;3.40;99.90;;;;;;5048765;28;20083;-72
2022/12/27 09:04:22;;;;;;;15.68;2.70;;;3.40;99.90;;;;;;5072324;28;20386;-72
2022/12/27 09:06:48;;;;;;;9.63;2.10;;;3.40;99.90;;;;;;5046214;28;20062;-73
2022/12/27 09:09:16;;;;;;;15.07;2.47;;;3.40;99.90;;;;;;5055034;28;20102;-73
2022/12/27 09:11:42;;;;;;;14.68;2.05;;;3.40;99.90;;;;;;5038035;28;20056;-72
2022/12/27 09:14:08;;;;;;;9.07;2.25;;;3.50;99.90;;;;;;5056540;28;20055;-73
2022/12/27 09:16:35;;;;;;;14.27;2.47;;;3.50;99.90;;;;;;5052677;28;20556;-73
2022/12/27 09:19:02;;;;;;;21.52;2.60;;;3.50;99.90;;;;;;5041892;28;20051;-73
2022/12/27 09:21:30;;;;;;;13.25;2.67;;;3.60;99.90;;;;;;5060806;28;20152;-73
2022/12/27 09:23:57;;;;;;;14.63;2.50;;;3.60;99.90;;;;;;5048400;28;20051;-72
2022/12/27 09:26:26;;;;;;;19.10;3.53;;;3.60;99.90;;;;;;5034773;28;20102;-73
2022/12/27 09:28:53;;;;;;;20.08;3.30;;;3.60;99.90;;;;;;5054883;28;20114;-72
2022/12/27 09:31:22;;;;;;;14.20;3.10;;;3.70;99.90;;;;;;5054884;28;20044;-72
2022/12/27 09:33:49;;;;;;;16.85;2.80;;;3.70;99.90;;;;;;5046760;28;20052;-72
2022/12/27 09:36:18;;;;;;;14.43;2.30;;;3.70;99.90;;;;;;5032927;28;20733;-72
2022/12/27 09:38:45;;;;;;;15.98;2.63;;;3.70;99.90;;;;;;5052303;28;20425;-73
2022/12/27 09:41:38;;;;;;;11.75;2.28;;;3.70;99.90;;;;;;5053533;28;20036;-73
2022/12/27 09:44:07;;;;;;;12.57;2.05;;;3.80;99.90;;;;;;5064244;28;20052;-72
2022/12/27 09:46:57;;;;;;;13.68;2.45;;;3.90;99.90;;;;;;5070773;28;20055;-73
2022/12/27 09:49:37;;;;;;;15.18;2.60;;;3.80;99.90;;;;;;5050400;28;20039;-74
2022/12/27 09:52:12;;;;;;;13.65;2.40;;;3.90;99.90;;;;;;5048099;28;20149;-71
2022/12/27 09:54:43;;;;;;;16.38;2.72;;;3.90;99.90;;;;;;5045358;28;20052;-72
2022/12/27 09:57:26;;;;;;;;;;;3.90;99.90;;;;;;5040674;28;20055;-73
2022/12/27 09:59:57;;;;;;;9.13;2.13;;;3.90;99.90;;;;;;5074575;28;20313;-73
2022/12/27 10:02:26;;;;;;;8.05;2.30;;;4.00;99.90;;;;;;5060458;28;20040;-74
2022/12/27 10:04:54;;;;;;;13.57;2.45;;;4.00;99.90;;;;;;5061247;28;20480;-71
2022/12/27 10:07:57;;;;;;;17.75;2.60;;;4.00;99.90;;;;;;5037998;28;20106;-72
2022/12/27 10:10:35;;;;;;;14.15;2.10;;;4.10;99.90;;;;;;5027318;28;20076;-72
2022/12/27 10:13:15;;;;;;;12.65;2.35;;;4.20;99.90;;;;;;5063351;28;20039;-73
2022/12/27 10:15:55;;;;;;;10.93;2.75;;;4.20;99.90;;;;;;5045845;28;20051;-73
2022/12/27 10:18:42;;;;;;;14.50;2.40;;;4.20;99.90;;;;;;5062485;28;20046;-72
2022/12/27 10:21:33;;;;;;;11.43;2.22;;;4.30;99.90;;;;;;5043815;28;20037;-73
2022/12/27 10:24:05;;;;;;;15.65;3.65;;;4.30;99.90;;;;;;5049841;28;20084;-72
2022/12/27 10:26:31;;;;;;;17.88;2.90;;;4.30;99.90;;;;;;5043462;28;20056;-73
2022/12/27 10:29:02;;;;;;;15.75;3.45;;;4.40;99.90;;;;;;5043935;28;20062;-72
2022/12/27 10:31:30;;;;;;;13.37;2.17;;;4.40;99.90;;;;;;5034120;28;20720;-72
2022/12/27 10:33:56;;;;;;;16.55;3.42;;;4.50;99.90;;;;;;5062491;28;20329;-72
2022/12/27 10:36:26;;;;;;;12.55;2.63;;;4.50;99.90;;;;;;5036531;28;20076;-73
2022/12/27 10:38:52;;;;;;;21.33;3.03;;;4.60;99.90;;;;;;5050226;28;20051;-72
2022/12/27 10:41:44;;;;;;;18.35;3.45;;;4.60;99.90;;;;;;5034965;28;20048;-72
2022/12/27 10:44:11;;;;;;;17.00;2.67;;;4.70;99.90;;;;;;5025795;28;20097;-74
2022/12/27 10:46:37;;;;;;;11.10;2.45;;;5.00;99.90;;;;;;5057661;28;20044;-73
2022/12/27 10:49:22;;;;;;;15.98;3.00;;;4.70;99.90;;;;;;5065483;28;20039;-74
2022/12/27 10:51:50;;;;;;;12.38;2.10;;;4.80;99.90;;;;;;5067754;28;20044;-72
2022/12/27 10:54:29;;;;;;;17.58;2.65;;;4.80;99.90;;;;;;5075000;28;20855;-73
2022/12/27 10:57:14;;;;;;;14.15;2.35;;;4.90;99.90;;;;;;5054852;28;20040;-72
2022/12/27 10:59:40;;;;;;;13.60;2.42;;;5.20;99.90;;;;;;5051805;28;20109;-73
2022/12/27 11:02:13;;;;;;;12.88;2.33;;;5.00;99.90;;;;;;5073247;28;20625;-73
2022/12/27 11:04:55;;;;;;;17.38;2.63;;;5.00;99.90;;;;;;5051824;28;20052;-73
2022/12/27 11:07:21;;;;;;;12.63;2.35;;;5.20;99.90;;;;;;5068753;28;20127;-73
2022/12/27 11:09:47;;;;;;;15.15;2.20;;;5.20;99.90;;;;;;5062381;28;20785;-73
2022/12/27 11:12:15;;;;;;;14.50;1.95;;;5.20;99.90;;;;;;5051206;28;20051;-73
2022/12/27 11:14:56;;;;;;;16.23;2.13;;;5.20;99.90;;;;;;5041033;28;20635;-73
2022/12/27 11:17:40;;;;;;;13.87;2.30;;;5.20;99.90;;;;;;5035131;28;20669;-74
2022/12/27 11:20:32;;;;;;;18.90;3.03;;;5.20;99.90;;;;;;5034221;28;20060;-72
2022/12/27 11:23:03;;;;;;;14.35;2.22;;;5.30;99.90;;;;;;5020003;28;20096;-72
2022/12/27 11:25:30;;;;;;;10.70;1.73;;;5.30;99.90;;;;;;5026228;28;20238;-72
2022/12/27 11:28:33;;;;;;;12.98;2.28;;;5.30;99.90;;;;;;5027960;28;20041;-73
2022/12/27 11:31:02;;;;;;;15.52;2.05;;;5.30;99.90;;;;;;5029068;28;20052;-74
2022/12/27 11:33:45;;;;;;;16.75;2.42;;;5.30;99.90;;;;;;5026250;28;20656;-73
2022/12/27 11:36:13;;;;;;;11.43;2.15;;;5.30;99.90;;;;;;5032058;28;20079;-73
2022/12/27 11:38:43;;;;;;;11.05;2.20;;;5.30;99.90;;;;;;5029242;28;20067;-74
2022/12/27 11:41:16;;;;;;;15.75;2.83;;;5.40;99.90;;;;;;5028680;28;20052;-73
2022/12/27 11:43:52;;;;;;;15.80;2.40;;;5.40;99.90;;;;;;5025698;28;20084;-72
2022/12/27 11:46:26;;;;;;;15.40;2.70;;;5.50;99.90;;;;;;5015632;28;20429;-72
2022/12/27 11:48:58;;;;;;;16.40;3.15;;;5.60;99.90;;;;;;5042616;28;20051;-73
2022/12/27 11:51:42;;;;;;;11.43;2.08;;;5.60;99.90;;;;;;5027870;28;20488;-72
2022/12/27 11:54:44;;;;;;;16.00;2.75;;;5.60;99.90;;;;;;5040680;28;20124;-72
2022/12/27 11:57:44;;;;;;;15.05;2.40;;;5.60;99.90;;;;;;5028184;28;20220;-74
2022/12/27 12:00:25;;;;;;;12.00;2.30;;;5.60;99.90;;;;;;5041068;28;20056;-71
2022/12/27 12:02:57;;;;;;;;;;;5.70;99.90;;;;;;5025734;28;20040;-73
2022/12/27 12:05:52;;;;;;;11.65;2.38;;;5.70;99.90;;;;;;5028237;28;19925;-73
2022/12/27 12:08:35;;;;;;;13.98;2.55;;;5.70;99.90;;;;;;5029128;28;20102;-71
2022/12/27 12:11:04;;;;;;;9.82;1.75;;;5.70;99.90;;;;;;5048943;28;20447;-73
2022/12/27 12:13:44;;;;;;;14.63;2.30;;;5.70;99.90;;;;;;5046966;28;20054;-74
2022/12/27 12:16:32;;;;;;;11.80;2.10;;;5.70;99.90;;;;;;5046876;28;20125;-73
2022/12/27 12:19:27;;;;;;;12.93;2.42;;;5.70;99.90;;;;;;5062198;28;20309;-73
2022/12/27 12:22:24;;;;;;;14.98;2.40;;;5.80;99.90;;;;;;5045840;28;20596;-73
2022/12/27 12:25:30;;;;;;;13.32;2.28;;;5.80;99.90;;;;;;5049689;28;20124;-72
2022/12/27 12:28:29;;;;;;;15.43;1.63;;;5.80;99.90;;;;;;5038652;28;20083;-73
2022/12/27 12:31:22;;;;;;;21.65;3.28;;;5.90;99.90;;;;;;5065773;28;20040;-71
2022/12/27 12:33:51;;;;;;;11.45;2.13;;;5.90;99.90;;;;;;5068061;28;20060;-72
2022/12/27 12:36:41;;;;;;;12.27;2.00;;;5.90;99.90;;;;;;5034434;28;20055;-72
2022/12/27 12:39:43;;;;;;;9.50;1.60;;;5.80;99.90;;;;;;5063607;28;20056;-71
2022/12/27 12:42:30;;;;;;;11.82;2.00;;;5.90;99.90;;;;;;5047840;28;20047;-72
2022/12/27 12:45:29;;;;;;;8.00;1.80;;;5.90;99.90;;;;;;5032481;28;20627;-73
2022/12/27 12:48:39;;;;;;;9.45;1.90;;;5.80;99.90;;;;;;5051629;28;20071;-73
2022/12/27 12:51:23;;;;;;;13.27;2.30;;;5.80;99.90;;;;;;5047442;28;20131;-73
2022/12/27 12:54:01;;;;;;;11.35;1.88;;;5.80;99.90;;;;;;5048448;28;20039;-74
2022/12/27 12:56:48;;;;;;;14.07;2.00;;;5.80;99.90;;;;;;5065307;28;20045;-73
2022/12/27 12:59:39;;;;;;;15.60;2.33;;;5.90;99.90;;;;;;5054596;28;20040;-74
2022/12/27 13:02:33;;;;;;;9.70;1.80;;;5.80;99.90;;;;;;5066913;28;20048;-72
2022/12/27 13:05:20;;;;;;;13.30;2.35;;;5.80;99.90;;;;;;5047882;28;20044;-71
2022/12/27 13:08:09;;;;;;;10.95;1.80;;;5.80;99.90;;;;;;5034819;28;20167;-72
2022/12/27 13:10:48;;;;;;;14.90;2.75;;;5.80;99.90;;;;;;5056462;28;20079;-72
2022/12/27 13:13:51;;;;;;;11.55;2.47;;;5.80;99.90;;;;;;5064317;28;20048;-74
2022/12/27 13:16:46;;;;;;;13.35;1.98;;;5.80;99.90;;;;;;5049092;28;20049;-73
2022/12/27 13:19:37;;;;;;;11.80;2.05;;;5.80;99.90;;;;;;5062410;28;20055;-74
2022/12/27 13:22:45;;;;;;;10.33;1.97;;;5.80;99.90;;;;;;5047299;28;20090;-72
2022/12/27 13:25:45;;;;;;;11.82;2.55;;;5.80;99.90;;;;;;5049433;28;20052;-72
2022/12/27 13:28:43;;;;;;;10.73;2.23;;;5.70;99.90;;;;;;5022973;28;20060;-72
2022/12/27 13:31:41;;;;;;;15.32;2.92;;;5.80;99.90;;;;;;5050964;28;21343;-73
2022/12/27 13:34:21;;;;;;;15.75;3.38;;;5.70;99.90;;;;;;5031339;28;20047;-73
2022/12/27 13:36:53;;;;;;;12.07;2.60;;;6.20;99.90;;;;;;5050513;28;20048;-72
2022/12/27 13:39:32;;;;;;;13.30;2.13;;;5.70;99.90;;;;;;5054584;28;20908;-73
2022/12/27 13:43:00;;;;;;;17.08;3.15;;;5.70;99.90;;;;;;5037795;28;20041;-72
2022/12/27 13:45:34;;;;;;;19.25;3.13;;;5.70;99.90;;;;;;4970539;28;20046;-71
2022/12/27 13:48:37;;;;;;;12.20;2.95;;;5.70;99.90;;;;;;5019805;28;20052;-73
2022/12/27 13:51:22;;;;;;;14.43;2.97;;;5.70;99.90;;;;;;5061404;28;20048;-72
2022/12/27 13:53:50;;;;;;;14.05;3.47;;;5.70;99.90;;;;;;5063219;28;20047;-72
2022/12/27 13:57:01;;;;;;;10.90;2.38;;;5.70;99.90;;;;;;5046459;28;20151;-73
2022/12/27 13:59:44;;;;;;;9.17;2.67;;;5.70;99.90;;;;;;5028735;28;20122;-72
2022/12/27 14:02:22;;;;;;;20.77;3.92;;;5.60;99.90;;;;;;5048700;28;20298;-73
2022/12/27 14:04:55;;;;;;;15.88;3.20;;;5.60;99.90;;;;;;5028341;28;20062;-72
2022/12/27 14:07:39;;;;;;;14.90;3.28;;;5.60;99.90;;;;;;5030953;28;20079;-72
2022/12/27 14:10:20;;;;;;;27.60;4.15;;;5.70;99.90;;;;;;5046147;28;20424;-70
2022/12/27 14:12:56;;;;;;;15.43;3.92;;;5.60;99.90;;;;;;5028285;28;20056;-73
2022/12/27 14:15:44;;;;;;;21.65;3.95;;;5.70;99.90;;;;;;5045242;28;20051;-72
2022/12/27 14:18:19;;;;;;;11.77;3.90;;;5.70;99.90;;;;;;5046049;28;20183;-72
2022/12/27 14:21:18;;;;;;;17.58;4.13;;;5.70;99.90;;;;;;5064679;28;20105;-72
2022/12/27 14:24:31;;;;;;;16.50;4.40;;;5.70;99.90;;;;;;5066608;28;20040;-72
2022/12/27 14:27:24;;;;;;;17.42;4.32;;;5.70;99.90;;;;;;5061035;28;20170;-73
2022/12/27 14:30:09;;;;;;;16.65;4.47;;;5.70;99.90;;;;;;5047739;28;20043;-72
2022/12/27 14:32:44;;;;;;;18.02;4.75;;;5.80;99.90;;;;;;5063103;28;20047;-72
2022/12/27 14:35:40;;;;;;;15.77;4.50;;;5.80;99.90;;;;;;5045373;28;20387;-72
2022/12/27 14:38:18;;;;;;;26.90;4.43;;;5.80;99.90;;;;;;5045088;28;20044;-71
2022/12/27 14:41:15;;;;;;;22.35;4.53;;;5.80;99.90;;;;;;5050916;28;20040;-72
2022/12/27 14:43:53;;;;;;;18.80;4.68;;;5.80;99.90;;;;;;5046073;28;20564;-73
2022/12/27 14:46:37;;;;;;;17.77;4.55;;;5.80;99.90;;;;;;5063984;28;20047;-73
2022/12/27 14:49:31;;;;;;;15.52;4.75;;;5.70;99.90;;;;;;5046655;28;20055;-72
2022/12/27 14:52:07;;;;;;;17.05;4.78;;;5.80;99.90;;;;;;5021888;28;20063;-71
2022/12/27 14:54:39;;;;;;;15.65;4.80;;;5.70;99.90;;;;;;5063515;28;20143;-72
2022/12/27 14:57:11;;;;;;;;;;;6.00;99.90;;;;;;5049723;28;20109;-72